Time;durP1;ratioP1;P1;durP2;ratioP2;P2;SDS_P1;SDS_P2;PMS_P1;PMS_P2;Temp;Humidity;BMP_temperature;BMP_pressure;BME280_temperature;BME280_humidity;BME280_pressure;Samples;Min_cycle;Max_cycle;Signal;HPM_P1;HPM_P2
2022/08/18 00:02:16;;;;;;;32.13;23.48;;;18.80;99.90;;;;;;5057899;28;20040;-25
2022/08/18 00:04:43;;;;;;;31.73;24.27;;;18.80;99.90;;;;;;5066675;28;20489;-26
2022/08/18 00:07:12;;;;;;;26.50;23.42;;;18.80;99.90;;;;;;5052611;28;20474;-25
2022/08/18 00:09:42;;;;;;;28.13;21.77;;;18.80;99.90;;;;;;5072283;28;20048;-26
2022/08/18 00:12:31;;;;;;;28.73;24.83;;;18.80;99.90;;;;;;5070229;28;20063;-25
2022/08/18 00:15:02;;;;;;;25.60;22.42;;;18.80;99.90;;;;;;5050534;28;20329;-25
2022/08/18 00:17:28;;;;;;;28.92;23.38;;;18.80;99.90;;;;;;5067648;28;20445;-25
2022/08/18 00:19:54;;;;;;;26.98;22.70;;;18.80;99.90;;;;;;5054831;28;20090;-26
2022/08/18 00:22:20;;;;;;;31.15;22.73;;;18.80;99.90;;;;;;5052884;28;20044;-26
2022/08/18 00:24:52;;;;;;;30.35;23.15;;;18.80;99.90;;;;;;5070685;28;20037;-26
2022/08/18 00:27:20;;;;;;;33.30;24.10;;;18.80;99.90;;;;;;5052042;28;20042;-27
2022/08/18 00:29:47;;;;;;;28.10;23.60;;;18.80;99.90;;;;;;5053465;28;20117;-26
2022/08/18 00:32:18;;;;;;;24.40;21.52;;;18.80;99.90;;;;;;5070889;28;20047;-25
2022/08/18 00:34:44;;;;;;;28.17;23.55;;;18.80;99.90;;;;;;5053555;28;20444;-26
2022/08/18 00:37:10;;;;;;;27.17;22.95;;;18.80;99.90;;;;;;5042238;28;20106;-25
2022/08/18 00:39:36;;;;;;;29.42;23.48;;;18.90;99.90;;;;;;5053787;28;20409;-26
2022/08/18 00:42:32;;;;;;;27.55;22.50;;;18.80;99.90;;;;;;5065637;28;20127;-26
2022/08/18 00:45:03;;;;;;;29.65;23.20;;;18.90;99.90;;;;;;5038233;28;20048;-27
2022/08/18 00:47:29;;;;;;;27.30;22.17;;;18.80;99.90;;;;;;5056174;28;20079;-25
2022/08/18 00:49:56;;;;;;;24.55;21.63;;;18.80;99.90;;;;;;5050073;28;20402;-27
2022/08/18 00:52:23;;;;;;;26.70;21.27;;;18.80;99.90;;;;;;5064073;28;20444;-25
2022/08/18 00:54:51;;;;;;;23.58;21.10;;;18.80;99.90;;;;;;5063556;28;20044;-26
2022/08/18 00:57:20;;;;;;;28.02;21.77;;;18.80;99.90;;;;;;5068896;28;20154;-26
2022/08/18 00:59:54;;;;;;;23.08;20.17;;;18.90;99.90;;;;;;5041095;28;20428;-26
2022/08/18 01:02:28;;;;;;;21.70;19.45;;;18.80;99.90;;;;;;5053555;28;20055;-26
2022/08/18 01:05:07;;;;;;;22.38;19.95;;;18.80;99.90;;;;;;5068538;28;20028;-27
2022/08/18 01:07:45;;;;;;;28.83;20.90;;;18.80;99.90;;;;;;5053045;28;20162;-25
2022/08/18 01:10:16;;;;;;;22.10;18.40;;;18.90;99.90;;;;;;5069156;28;20032;-26
2022/08/18 01:12:43;;;;;;;22.42;19.92;;;18.90;99.90;;;;;;5053604;28;20036;-25
2022/08/18 01:15:12;;;;;;;23.25;18.58;;;18.90;99.90;;;;;;5056612;28;20032;-25
2022/08/18 01:23:19;;;;;;;20.63;18.30;;;18.90;99.90;;;;;;5063962;28;20033;-31
2022/08/18 01:25:59;;;;;;;21.48;18.10;;;18.80;99.90;;;;;;5068284;28;20157;-32
2022/08/18 01:28:31;;;;;;;23.98;18.80;;;18.80;99.90;;;;;;5049892;28;20036;-30
2022/08/18 01:30:58;;;;;;;23.15;17.52;;;18.80;99.90;;;;;;5069592;28;20037;-30
2022/08/18 01:33:37;;;;;;;22.08;18.20;;;18.80;99.90;;;;;;5054592;28;20098;-30
2022/08/18 01:36:15;;;;;;;19.35;16.67;;;18.80;99.90;;;;;;5069123;28;20092;-31
2022/08/18 01:38:43;;;;;;;21.50;16.35;;;18.80;99.90;;;;;;5046906;28;20181;-31
2022/08/18 01:41:09;;;;;;;19.38;15.43;;;18.90;99.90;;;;;;5051127;28;20040;-31
2022/08/18 01:43:36;;;;;;;17.95;16.05;;;18.80;99.90;;;;;;5051514;28;20460;-29
2022/08/18 01:46:03;;;;;;;22.50;16.02;;;18.80;99.90;;;;;;5052585;28;20044;-30
2022/08/18 01:48:33;;;;;;;22.13;17.95;;;18.80;99.90;;;;;;5067500;28;20032;-30
2022/08/18 01:51:06;;;;;;;18.05;15.45;;;18.80;99.90;;;;;;5055460;28;20414;-32
2022/08/18 01:53:32;;;;;;;18.53;15.37;;;18.80;99.90;;;;;;5052327;28;20040;-29
2022/08/18 01:55:58;;;;;;;17.40;13.98;;;18.80;99.90;;;;;;5051429;28;20643;-30
2022/08/18 01:58:26;;;;;;;19.42;14.60;;;18.80;99.90;;;;;;5067662;28;20037;-32
2022/08/18 02:00:57;;;;;;;19.15;13.60;;;18.80;99.90;;;;;;5053748;28;20097;-30
2022/08/18 02:03:27;;;;;;;17.60;12.93;;;18.70;99.90;;;;;;5050455;28;20032;-32
2022/08/18 02:05:58;;;;;;;17.60;13.15;;;18.70;99.90;;;;;;5046218;28;20074;-34
2022/08/18 02:08:25;;;;;;;19.17;14.35;;;18.60;99.90;;;;;;5050300;28;20542;-29
2022/08/18 02:10:51;;;;;;;18.13;12.95;;;18.60;99.90;;;;;;5068619;28;20071;-32
2022/08/18 02:13:17;;;;;;;15.10;12.80;;;18.60;99.90;;;;;;5054664;28;20112;-33
2022/08/18 02:15:44;;;;;;;18.48;14.30;;;18.50;99.90;;;;;;5049381;28;20178;-32
2022/08/18 02:18:14;;;;;;;21.77;13.90;;;18.50;99.90;;;;;;5067098;28;20102;-32
2022/08/18 02:20:40;;;;;;;14.00;12.32;;;18.50;99.90;;;;;;5050072;28;20032;-29
2022/08/18 02:23:06;;;;;;;18.52;14.02;;;18.40;99.90;;;;;;5049359;28;20062;-34
2022/08/18 02:25:32;;;;;;;18.52;14.32;;;18.40;99.90;;;;;;5033911;28;20045;-32
2022/08/18 02:27:57;;;;;;;16.50;14.57;;;18.40;99.90;;;;;;5068780;28;20367;-27
2022/08/18 02:30:23;;;;;;;17.05;13.00;;;18.40;99.90;;;;;;5069972;28;20119;-26
2022/08/18 02:32:49;;;;;;;18.75;12.88;;;18.40;99.90;;;;;;5069779;28;20494;-26
2022/08/18 02:35:15;;;;;;;16.40;12.82;;;18.40;99.90;;;;;;5069860;28;20037;-26
2022/08/18 02:37:46;;;;;;;19.52;13.80;;;18.40;99.90;;;;;;5069892;28;20495;-26
2022/08/18 02:40:13;;;;;;;16.48;12.18;;;18.40;99.90;;;;;;5069537;28;20045;-26
2022/08/18 02:42:39;;;;;;;15.82;12.25;;;18.40;99.90;;;;;;5069665;28;20041;-25
2022/08/18 02:45:05;;;;;;;15.85;11.90;;;18.40;99.90;;;;;;5069431;28;20036;-26
2022/08/18 02:47:31;;;;;;;18.05;13.27;;;18.40;99.90;;;;;;5069344;28;20383;-26
2022/08/18 02:49:57;;;;;;;17.38;12.85;;;18.40;99.90;;;;;;5069725;28;20111;-27
2022/08/18 02:52:28;;;;;;;16.00;12.73;;;18.40;99.90;;;;;;5036133;28;20083;-27
2022/08/18 02:54:54;;;;;;;16.17;12.48;;;18.30;99.90;;;;;;5069374;28;20048;-25
2022/08/18 02:57:21;;;;;;;17.13;11.73;;;18.30;99.90;;;;;;5069300;28;20044;-27
2022/08/18 02:59:46;;;;;;;17.17;12.43;;;18.30;99.90;;;;;;5052872;28;20040;-27
2022/08/18 03:02:12;;;;;;;16.20;12.90;;;18.30;99.90;;;;;;5069608;28;20048;-27
2022/08/18 03:04:38;;;;;;;17.95;12.75;;;18.40;99.90;;;;;;5069288;28;20113;-26
2022/08/18 03:07:06;;;;;;;26.10;14.55;;;18.40;99.90;;;;;;5069367;28;20417;-26
2022/08/18 03:09:33;;;;;;;22.25;13.65;;;18.40;99.90;;;;;;5069863;28;20112;-26
2022/08/18 03:11:59;;;;;;;17.85;13.38;;;18.40;99.90;;;;;;5069798;28;20044;-26
2022/08/18 03:14:25;;;;;;;16.98;13.48;;;18.40;99.90;;;;;;5069399;28;20112;-26
2022/08/18 03:16:51;;;;;;;18.58;13.48;;;18.40;99.90;;;;;;5070465;28;20040;-25
2022/08/18 03:19:17;;;;;;;15.85;12.73;;;18.40;99.90;;;;;;5069357;28;20048;-25
2022/08/18 03:21:45;;;;;;;15.93;13.35;;;18.40;99.90;;;;;;5072271;28;20041;-26
2022/08/18 03:24:11;;;;;;;16.55;13.60;;;18.40;99.90;;;;;;5073598;28;20470;-28
2022/08/18 03:26:43;;;;;;;19.38;14.20;;;18.40;99.90;;;;;;5073425;28;20494;-25
2022/08/18 03:29:10;;;;;;;17.00;13.80;;;18.40;99.90;;;;;;5073288;28;20111;-26
2022/08/18 03:31:39;;;;;;;15.57;13.18;;;18.40;99.90;;;;;;5072730;28;20050;-25
2022/08/18 03:34:07;;;;;;;16.88;12.75;;;18.40;99.90;;;;;;5072758;28;20159;-26
2022/08/18 03:36:35;;;;;;;16.20;13.15;;;18.40;99.90;;;;;;5072865;28;20109;-25
2022/08/18 03:39:12;;;;;;;16.40;12.65;;;18.40;99.90;;;;;;5072898;28;20072;-29
2022/08/18 03:41:41;;;;;;;17.30;14.00;;;18.50;99.90;;;;;;5072298;28;20132;-26
2022/08/18 03:44:11;;;;;;;15.38;13.68;;;18.50;99.90;;;;;;5072681;28;20078;-28
2022/08/18 03:46:40;;;;;;;17.15;13.60;;;18.50;99.90;;;;;;5073837;28;20307;-26
2022/08/18 03:49:06;;;;;;;19.23;14.75;;;18.50;99.90;;;;;;5055775;28;20494;-27
2022/08/18 03:51:32;;;;;;;22.95;15.27;;;18.50;99.90;;;;;;5072763;28;20128;-26
2022/08/18 03:54:00;;;;;;;21.60;15.18;;;18.50;99.90;;;;;;5072266;28;20111;-26
2022/08/18 03:56:32;;;;;;;22.42;16.08;;;18.40;99.90;;;;;;5072597;28;20559;-28
2022/08/18 03:59:02;;;;;;;22.20;16.77;;;18.40;99.90;;;;;;5072498;28;20477;-26
2022/08/18 04:01:31;;;;;;;22.40;16.77;;;18.40;99.90;;;;;;5073036;28;20127;-28
2022/08/18 04:04:03;;;;;;;22.50;15.98;;;18.40;99.90;;;;;;5072271;28;20558;-26
2022/08/18 04:06:33;;;;;;;23.35;16.60;;;18.40;99.90;;;;;;5072151;28;20040;-25
2022/08/18 04:09:01;;;;;;;26.17;17.33;;;18.50;99.90;;;;;;5072062;28;20029;-25
2022/08/18 04:11:27;;;;;;;25.35;18.10;;;18.40;99.90;;;;;;5073064;28;20087;-26
2022/08/18 04:13:56;;;;;;;25.40;20.42;;;18.40;99.90;;;;;;5055271;28;20094;-26
2022/08/18 04:16:24;;;;;;;25.10;19.00;;;18.50;99.90;;;;;;5072038;28;20048;-27
2022/08/18 04:18:50;;;;;;;27.45;19.08;;;18.50;99.90;;;;;;5072144;28;20505;-26
2022/08/18 04:21:17;;;;;;;24.70;18.70;;;18.50;99.90;;;;;;5072079;28;20041;-26
2022/08/18 04:23:42;;;;;;;23.83;19.42;;;18.50;99.90;;;;;;5072178;28;20678;-27
2022/08/18 04:26:10;;;;;;;29.10;21.05;;;18.50;99.90;;;;;;5071930;28;20032;-26
2022/08/18 04:28:36;;;;;;;28.45;20.13;;;18.50;99.90;;;;;;5071501;28;20040;-26
2022/08/18 04:31:11;;;;;;;34.72;22.30;;;18.50;99.90;;;;;;5071712;28;20533;-26
2022/08/18 04:33:38;;;;;;;25.13;19.80;;;18.50;99.90;;;;;;5071521;28;20528;-26
2022/08/18 04:36:13;;;;;;;24.63;19.48;;;18.60;99.90;;;;;;5071721;28;20040;-27
2022/08/18 04:38:41;;;;;;;29.35;20.55;;;18.60;99.90;;;;;;5071645;28;20040;-26
2022/08/18 04:41:07;;;;;;;29.92;21.27;;;18.60;99.90;;;;;;5054825;28;20337;-26
2022/08/18 04:43:33;;;;;;;28.15;20.60;;;18.60;99.90;;;;;;5071168;28;20044;-26
2022/08/18 04:46:00;;;;;;;29.35;21.20;;;18.60;99.90;;;;;;5071283;28;20097;-26
2022/08/18 04:48:35;;;;;;;28.92;21.75;;;18.60;99.90;;;;;;5071226;28;20039;-26
2022/08/18 04:51:17;;;;;;;31.40;23.00;;;18.60;99.90;;;;;;5071324;28;20044;-26
2022/08/18 04:53:46;;;;;;;29.67;20.92;;;18.60;99.90;;;;;;5070491;28;20425;-26
2022/08/18 04:56:28;;;;;;;32.65;21.60;;;18.60;99.90;;;;;;5071083;28;20040;-26
2022/08/18 04:59:07;;;;;;;25.45;19.52;;;18.60;99.90;;;;;;5070490;28;20111;-26
2022/08/18 05:01:40;;;;;;;28.65;20.35;;;18.60;99.90;;;;;;5068736;28;20044;-25
2022/08/18 05:04:07;;;;;;;25.42;18.98;;;18.50;99.90;;;;;;5050826;28;20410;-27
2022/08/18 05:06:34;;;;;;;23.05;18.00;;;18.50;99.90;;;;;;5060889;28;20551;-26
2022/08/18 05:09:04;;;;;;;27.55;19.17;;;18.60;99.90;;;;;;5065764;28;20029;-26
2022/08/18 05:11:32;;;;;;;25.38;16.23;;;18.60;99.90;;;;;;5075407;28;20486;-27
2022/08/18 05:13:59;;;;;;;28.25;18.25;;;18.60;99.90;;;;;;5051838;28;20071;-25
2022/08/18 05:16:26;;;;;;;25.85;17.38;;;18.60;99.90;;;;;;5041800;28;20044;-25
2022/08/18 05:18:55;;;;;;;27.85;17.40;;;18.60;99.90;;;;;;5057023;28;20037;-25
2022/08/18 05:21:21;;;;;;;27.77;17.67;;;18.60;99.90;;;;;;5051590;28;20041;-25
2022/08/18 05:23:49;;;;;;;28.75;17.58;;;18.60;99.90;;;;;;5052046;28;20518;-25
2022/08/18 05:26:16;;;;;;;27.00;17.23;;;18.60;99.90;;;;;;5067788;28;20116;-27
2022/08/18 05:28:43;;;;;;;27.02;17.52;;;18.60;99.90;;;;;;5045686;28;20040;-26
2022/08/18 05:31:11;;;;;;;26.02;16.40;;;18.60;99.90;;;;;;5043191;28;20071;-27
2022/08/18 05:33:41;;;;;;;29.17;15.77;;;18.60;99.90;;;;;;5060459;28;20130;-25
2022/08/18 05:36:28;;;;;;;24.52;15.63;;;18.60;99.90;;;;;;5045336;28;20379;-25
2022/08/18 05:39:16;;;;;;;24.63;15.65;;;18.60;99.90;;;;;;5050608;28;20033;-27
2022/08/18 05:41:48;;;;;;;24.05;14.77;;;18.60;99.90;;;;;;5047137;28;20060;-27
2022/08/18 05:44:18;;;;;;;28.67;15.80;;;18.50;99.90;;;;;;5035797;28;20033;-26
2022/08/18 05:46:52;;;;;;;22.27;15.00;;;18.50;99.90;;;;;;5053386;28;20043;-25
2022/08/18 05:49:19;;;;;;;19.05;14.25;;;18.50;99.90;;;;;;5052544;28;20046;-26
2022/08/18 05:52:00;;;;;;;26.90;15.63;;;18.50;99.90;;;;;;5052760;28;20517;-26
2022/08/18 05:57:29;;;;;;;22.50;16.25;;;18.50;99.90;;;;;;5069412;28;20055;-27
2022/08/18 05:59:56;;;;;;;20.38;15.60;;;18.50;99.90;;;;;;5035791;28;20040;-27
2022/08/18 06:02:37;;;;;;;26.67;15.75;;;18.60;99.90;;;;;;5052614;28;20631;-26
2022/08/18 06:05:10;;;;;;;23.58;15.60;;;18.70;99.90;;;;;;5049792;28;20033;-27
2022/08/18 06:07:47;;;;;;;27.75;16.35;;;18.80;99.90;;;;;;5048907;28;20311;-26
2022/08/18 06:10:14;;;;;;;21.13;15.80;;;18.90;99.90;;;;;;5052212;28;20035;-26
2022/08/18 06:12:45;;;;;;;17.02;13.63;;;18.90;99.90;;;;;;5065788;28;20037;-26
2022/08/18 06:15:16;;;;;;;20.45;14.38;;;19.00;99.90;;;;;;5068368;28;20510;-25
2022/08/18 06:18:09;;;;;;;22.75;15.73;;;19.10;99.90;;;;;;5049650;28;20120;-26
2022/08/18 06:21:18;;;;;;;23.27;14.68;;;19.10;99.90;;;;;;5050120;28;20041;-27
2022/08/18 06:23:53;;;;;;;17.40;14.63;;;19.20;99.90;;;;;;5039702;28;20055;-26
2022/08/18 06:26:46;;;;;;;17.80;14.25;;;19.20;99.90;;;;;;5060146;28;20035;-25
2022/08/18 06:29:33;;;;;;;21.88;14.57;;;19.20;99.90;;;;;;5066988;28;20063;-26
2022/08/18 06:32:04;;;;;;;18.17;14.30;;;19.20;99.90;;;;;;5064046;28;20036;-25
2022/08/18 06:34:59;;;;;;;18.08;14.80;;;19.30;99.90;;;;;;5052339;28;20072;-26
2022/08/18 06:40:58;;;;;;;17.15;15.10;;;19.40;99.90;;;;;;5068952;28;20045;-26
2022/08/18 06:43:27;;;;;;;18.00;13.80;;;19.40;99.90;;;;;;5050678;28;20119;-26
2022/08/18 06:45:53;;;;;;;19.83;15.50;;;19.50;99.90;;;;;;5068088;28;20609;-26
2022/08/18 06:48:22;;;;;;;15.07;13.23;;;19.60;99.90;;;;;;5047528;28;20032;-25
2022/08/18 06:50:59;;;;;;;16.63;13.60;;;19.70;99.90;;;;;;5051955;28;20474;-26
2022/08/18 06:53:48;;;;;;;17.75;13.30;;;19.80;99.90;;;;;;5068651;28;20048;-27
2022/08/18 06:56:33;;;;;;;15.82;13.20;;;19.80;99.90;;;;;;5038786;28;20059;-26
2022/08/18 06:59:15;;;;;;;16.50;12.43;;;19.80;99.90;;;;;;5081576;28;20047;-25
2022/08/18 07:01:42;;;;;;;13.80;12.45;;;20.00;99.90;;;;;;5072939;28;20517;-26
2022/08/18 07:04:08;;;;;;;15.65;12.30;;;20.10;99.90;;;;;;5039098;28;20043;-25
2022/08/18 07:06:34;;;;;;;12.48;11.15;;;20.10;99.90;;;;;;5058804;28;20386;-25
2022/08/18 07:09:38;;;;;;;16.33;11.60;;;20.20;99.90;;;;;;5055466;28;20040;-26
2022/08/18 07:12:08;;;;;;;15.18;12.05;;;20.30;99.90;;;;;;4956108;28;20042;-26
2022/08/18 07:14:56;;;;;;;12.05;10.48;;;20.40;99.90;;;;;;4956112;28;20035;-25
2022/08/18 07:17:27;;;;;;;14.65;10.50;;;20.60;99.90;;;;;;5019188;28;20086;-27
2022/08/18 07:19:59;;;;;;;11.70;9.95;;;20.70;99.90;;;;;;5071602;28;20041;-26
2022/08/18 07:22:25;;;;;;;14.20;10.45;;;20.80;99.90;;;;;;5046977;28;20051;-26
2022/08/18 07:24:54;;;;;;;13.23;10.35;;;20.90;99.90;;;;;;5055694;28;20044;-26
2022/08/18 07:27:40;;;;;;;12.05;10.82;;;21.10;99.90;;;;;;5056077;28;20572;-27
2022/08/18 07:30:23;;;;;;;10.95;9.88;;;21.30;99.90;;;;;;5044081;28;20697;-28
2022/08/18 07:33:11;;;;;;;13.70;9.35;;;21.50;99.90;;;;;;5056276;28;20041;-26
2022/08/18 07:35:43;;;;;;;10.60;8.43;;;21.60;99.90;;;;;;5072723;28;20044;-27
2022/08/18 07:38:28;;;;;;;10.68;9.02;;;21.60;99.90;;;;;;5056180;28;20075;-25
2022/08/18 07:41:01;;;;;;;10.23;8.35;;;21.60;99.90;;;;;;5055261;28;20126;-26
2022/08/18 07:43:52;;;;;;;10.45;8.63;;;21.70;99.90;;;;;;5072706;28;20039;-26
2022/08/18 07:46:41;;;;;;;11.07;8.43;;;21.70;99.90;;;;;;5072323;28;20119;-26
2022/08/18 07:49:07;;;;;;;9.63;8.18;;;21.80;99.90;;;;;;5052511;28;20041;-25
2022/08/18 07:51:42;;;;;;;10.27;7.75;;;21.90;99.90;;;;;;5051476;28;20563;-26
2022/08/18 07:54:20;;;;;;;9.48;7.72;;;22.00;99.90;;;;;;5061389;28;20538;-27
2022/08/18 07:57:20;;;;;;;11.02;7.35;;;22.20;99.90;;;;;;5062891;28;20521;-28
2022/08/18 08:00:11;;;;;;;8.05;6.53;;;22.30;99.90;;;;;;5020059;28;20055;-27
2022/08/18 08:02:49;;;;;;;7.63;6.93;;;22.20;99.90;;;;;;5045374;28;20044;-27
2022/08/18 08:05:28;;;;;;;6.68;6.00;;;22.10;99.90;;;;;;5055538;28;20115;-27
2022/08/18 08:08:01;;;;;;;6.88;6.07;;;22.10;99.90;;;;;;5055149;28;20033;-26
2022/08/18 08:10:50;;;;;;;6.57;5.90;;;22.20;99.90;;;;;;5072111;28;20078;-26
2022/08/18 08:13:34;;;;;;;5.90;5.38;;;22.30;99.90;;;;;;5055295;28;20043;-25
2022/08/18 08:16:21;;;;;;;5.32;4.82;;;22.40;99.90;;;;;;5055302;28;20040;-28
2022/08/18 08:19:13;;;;;;;5.47;4.93;;;22.60;99.90;;;;;;5054835;28;20418;-27
2022/08/18 08:21:49;;;;;;;7.95;5.20;;;22.60;99.90;;;;;;5054793;28;20059;-27
2022/08/18 08:24:30;;;;;;;5.35;4.85;;;22.80;99.90;;;;;;5071897;28;20028;-28
2022/08/18 08:27:14;;;;;;;4.85;4.40;;;22.90;99.90;;;;;;5071663;28;20043;-26
2022/08/18 08:29:41;;;;;;;6.38;5.78;;;22.80;99.90;;;;;;5055214;28;20510;-25
2022/08/18 08:32:12;;;;;;;5.88;5.30;;;22.80;99.90;;;;;;5051591;28;20487;-25
2022/08/18 08:34:48;;;;;;;5.57;5.07;;;22.60;99.90;;;;;;5069928;28;20068;-26
2022/08/18 08:38:01;;;;;;;5.93;5.35;;;22.40;99.90;;;;;;5071240;28;20032;-26
2022/08/18 08:40:52;;;;;;;6.68;5.93;;;22.30;99.90;;;;;;5071524;28;20106;-26
2022/08/18 08:43:30;;;;;;;6.60;5.97;;;22.20;99.90;;;;;;5071129;28;20037;-26
2022/08/18 08:46:08;;;;;;;6.25;5.65;;;22.10;99.90;;;;;;5063996;28;20565;-26
2022/08/18 08:48:41;;;;;;;6.30;5.65;;;21.90;99.90;;;;;;5071369;28;20553;-26
2022/08/18 08:51:19;;;;;;;5.97;5.38;;;21.80;99.90;;;;;;5051417;28;20483;-27
2022/08/18 08:53:50;;;;;;;6.28;5.63;;;21.90;99.90;;;;;;5017839;28;20076;-26
2022/08/18 08:56:19;;;;;;;6.32;5.43;;;22.00;99.90;;;;;;5034742;28;20118;-27
2022/08/18 08:58:56;;;;;;;6.13;5.55;;;22.10;99.90;;;;;;5045307;28;20076;-26
2022/08/18 09:01:42;;;;;;;5.78;5.20;;;22.20;99.90;;;;;;5054448;28;20052;-27
2022/08/18 09:04:17;;;;;;;5.05;4.65;;;22.10;99.90;;;;;;5054492;28;20040;-27
2022/08/18 09:07:07;;;;;;;5.43;5.03;;;22.10;99.90;;;;;;5066734;28;20044;-25
2022/08/18 09:10:11;;;;;;;5.20;4.68;;;22.10;99.90;;;;;;5050815;28;20055;-25
2022/08/18 09:12:55;;;;;;;4.97;4.57;;;22.10;99.90;;;;;;5052125;28;20115;-26
2022/08/18 09:15:41;;;;;;;5.50;5.00;;;22.10;99.90;;;;;;5037635;28;20044;-27
2022/08/18 09:18:29;;;;;;;6.75;5.25;;;22.20;99.90;;;;;;5033514;28;20036;-25
2022/08/18 09:21:05;;;;;;;5.65;4.88;;;22.20;99.90;;;;;;5050428;28;20044;-26
2022/08/18 09:23:38;;;;;;;6.50;4.68;;;22.20;99.90;;;;;;5065287;28;20039;-26
2022/08/18 09:26:27;;;;;;;;;;;22.10;99.90;;;;;;5054202;28;20047;-26
2022/08/18 09:29:22;;;;;;;4.45;4.05;;;22.00;99.90;;;;;;5048421;28;19921;-26
2022/08/18 09:32:08;;;;;;;3.78;3.45;;;21.90;99.90;;;;;;5054241;28;20067;-25
2022/08/18 09:34:46;;;;;;;4.55;3.50;;;21.80;99.90;;;;;;5053448;28;20110;-26
2022/08/18 09:41:30;;;;;;;5.25;3.67;;;21.70;99.90;;;;;;5053931;28;20482;-28
2022/08/18 09:43:53;;;;;;;8.45;3.65;;;21.40;99.90;;;;;;5071093;28;20048;-26
2022/08/18 09:46:46;;;;;;;5.47;3.85;;;21.30;99.90;;;;;;5053470;28;20381;-26
2022/08/18 09:49:40;;;;;;;6.53;4.03;;;21.20;99.90;;;;;;5054587;28;20489;-27
2022/08/18 09:52:26;;;;;;;4.22;3.58;;;21.10;99.90;;;;;;5069870;28;20041;-25
2022/08/18 09:54:59;;;;;;;8.43;4.38;;;21.00;99.90;;;;;;5053884;28;20051;-25
2022/08/18 09:57:35;;;;;;;8.48;4.40;;;21.10;99.90;;;;;;5070304;28;20474;-26
2022/08/18 10:00:07;;;;;;;6.97;3.90;;;21.20;99.90;;;;;;5070339;28;20062;-25
2022/08/18 10:02:34;;;;;;;5.93;4.28;;;21.30;99.90;;;;;;5052745;28;20045;-26
2022/08/18 10:05:18;;;;;;;7.10;4.97;;;21.50;99.90;;;;;;5053215;28;20480;-24
2022/08/18 10:08:05;;;;;;;8.52;4.43;;;21.70;99.90;;;;;;5053213;28;20032;-26
2022/08/18 10:10:40;;;;;;;5.38;4.32;;;22.00;99.90;;;;;;5055443;28;20056;-25
2022/08/18 10:13:12;;;;;;;10.65;5.35;;;22.20;99.90;;;;;;5069727;28;20098;-26
2022/08/18 10:15:39;;;;;;;9.13;4.80;;;22.30;99.90;;;;;;5054737;28;20033;-26
2022/08/18 10:18:32;;;;;;;8.57;4.68;;;22.40;99.90;;;;;;5053049;28;20119;-25
2022/08/18 10:21:27;;;;;;;8.02;4.07;;;22.40;99.90;;;;;;5069602;28;20058;-26
2022/08/18 10:23:59;;;;;;;9.35;4.85;;;22.40;99.90;;;;;;5069839;28;20032;-27
2022/08/18 10:26:31;;;;;;;5.32;3.90;;;22.40;99.90;;;;;;5049831;28;20474;-28
2022/08/18 10:29:04;;;;;;;6.43;3.27;;;22.30;99.90;;;;;;5049852;28;20041;-26
2022/08/18 10:31:51;;;;;;;7.05;4.18;;;22.40;99.90;;;;;;5057403;28;20115;-26
2022/08/18 10:34:40;;;;;;;4.13;3.47;;;22.40;99.90;;;;;;5073616;28;20132;-27
2022/08/18 10:37:21;;;;;;;4.90;3.40;;;22.50;99.90;;;;;;5034201;28;20052;-26
2022/08/18 10:39:58;;;;;;;5.82;3.30;;;22.60;99.90;;;;;;5073595;28;20506;-26
2022/08/18 10:42:44;;;;;;;6.90;3.42;;;22.80;99.90;;;;;;5073489;28;20101;-25
2022/08/18 10:45:58;;;;;;;4.78;3.08;;;23.10;99.90;;;;;;5057021;28;20068;-27
2022/08/18 10:48:29;;;;;;;4.70;3.33;;;23.30;99.90;;;;;;4992951;28;20085;-25
2022/08/18 10:51:10;;;;;;;4.85;3.47;;;23.60;99.90;;;;;;4992917;28;20045;-26
2022/08/18 10:53:44;;;;;;;3.55;2.78;;;23.70;99.90;;;;;;5025008;28;20140;-31
2022/08/18 10:56:29;;;;;;;4.78;3.03;;;24.00;99.90;;;;;;5068482;28;20044;-30
2022/08/18 10:59:10;;;;;;;4.15;2.97;;;24.10;99.90;;;;;;5050392;28;20501;-30
2022/08/18 11:02:01;;;;;;;6.47;3.30;;;24.10;99.90;;;;;;5053297;28;20119;-30
2022/08/18 11:04:36;;;;;;;4.72;3.13;;;24.20;99.90;;;;;;5071744;28;20125;-32
2022/08/18 11:07:18;;;;;;;4.95;2.70;;;24.20;99.90;;;;;;5071897;28;20185;-31
2022/08/18 11:09:48;;;;;;;4.20;2.30;;;24.20;99.90;;;;;;5050800;28;20175;-31
2022/08/18 11:12:14;;;;;;;2.70;2.22;;;24.10;99.90;;;;;;5073429;28;20033;-30
2022/08/18 11:15:08;;;;;;;3.28;2.35;;;24.20;99.90;;;;;;5052977;28;20047;-30
2022/08/18 11:17:50;;;;;;;3.03;2.28;;;24.30;99.90;;;;;;5053480;28;20397;-30
2022/08/18 11:20:19;;;;;;;5.03;2.60;;;24.30;99.90;;;;;;5067392;28;20091;-30
2022/08/18 11:22:55;;;;;;;3.30;2.28;;;24.30;99.90;;;;;;5070567;28;20044;-30
2022/08/18 11:25:33;;;;;;;3.75;2.10;;;24.40;99.90;;;;;;5051822;28;20028;-33
2022/08/18 11:28:00;;;;;;;3.63;1.73;;;24.50;99.90;;;;;;5066074;28;20029;-29
2022/08/18 11:30:35;;;;;;;2.70;2.08;;;24.70;99.90;;;;;;5067945;28;20132;-29
2022/08/18 11:33:02;;;;;;;2.47;1.80;;;24.80;99.90;;;;;;5069571;28;20036;-30
2022/08/18 11:35:50;;;;;;;1.45;1.35;;;24.80;99.90;;;;;;5070288;28;20032;-30
2022/08/18 11:38:18;;;;;;;2.53;1.67;;;24.70;99.90;;;;;;5051102;28;20033;-29
2022/08/18 11:40:51;;;;;;;2.42;1.65;;;24.70;99.90;;;;;;5069819;28;20047;-31
2022/08/18 11:43:18;;;;;;;1.75;1.60;;;24.70;99.90;;;;;;5068483;28;20033;-30
2022/08/18 11:45:47;;;;;;;3.60;1.70;;;24.60;99.90;;;;;;5054956;28;20040;-32
2022/08/18 11:48:18;;;;;;;2.42;1.80;;;24.60;99.90;;;;;;5072301;28;20044;-30
2022/08/18 11:51:00;;;;;;;3.17;1.92;;;24.50;99.90;;;;;;5071453;28;20040;-32
2022/08/18 11:53:59;;;;;;;3.10;1.95;;;24.50;99.90;;;;;;5054431;28;20620;-30
2022/08/18 11:56:33;;;;;;;3.35;2.15;;;24.30;99.90;;;;;;5050796;28;20084;-31
2022/08/18 11:59:00;;;;;;;4.18;2.25;;;24.20;99.90;;;;;;5070974;28;20569;-30
2022/08/18 12:01:32;;;;;;;3.63;2.00;;;24.10;99.90;;;;;;5065730;28;20037;-31
2022/08/18 12:04:10;;;;;;;2.33;2.13;;;24.10;99.90;;;;;;5051007;28;20090;-33
2022/08/18 12:06:38;;;;;;;2.22;2.03;;;24.00;99.90;;;;;;5054532;28;20052;-30
2022/08/18 12:09:15;;;;;;;2.55;2.17;;;23.90;99.90;;;;;;5071020;28;20043;-33
2022/08/18 12:12:02;;;;;;;3.53;2.30;;;24.00;99.90;;;;;;5070584;28;20047;-32
2022/08/18 12:14:32;;;;;;;3.33;2.45;;;24.00;99.90;;;;;;5066116;28;20037;-30
2022/08/18 12:16:58;;;;;;;4.03;2.45;;;24.10;99.90;;;;;;5070676;28;20040;-30
2022/08/18 12:19:29;;;;;;;3.05;2.35;;;24.20;99.90;;;;;;5072239;28;20529;-30
2022/08/18 12:21:57;;;;;;;3.67;2.30;;;24.40;99.90;;;;;;5053776;28;20032;-33
2022/08/18 12:24:27;;;;;;;3.05;2.10;;;24.50;99.90;;;;;;5066491;28;20375;-30
2022/08/18 12:26:53;;;;;;;2.42;2.22;;;24.70;99.90;;;;;;5069213;28;20402;-30
2022/08/18 12:29:19;;;;;;;2.97;2.20;;;25.00;99.90;;;;;;5070921;28;20028;-30
2022/08/18 12:31:46;;;;;;;2.45;1.60;;;25.70;99.90;;;;;;5069987;28;20067;-34
2022/08/18 12:34:12;;;;;;;3.50;1.92;;;26.20;99.90;;;;;;5047452;28;20036;-32
2022/08/18 12:36:38;;;;;;;3.78;2.20;;;26.80;99.90;;;;;;5069323;28;20036;-32
2022/08/18 12:39:04;;;;;;;5.97;2.20;;;27.60;99.90;;;;;;5070353;28;20043;-31
2022/08/18 12:41:30;;;;;;;2.60;1.92;;;28.70;99.90;;;;;;5069782;28;20048;-30
2022/08/18 12:43:56;;;;;;;3.50;2.10;;;28.90;99.90;;;;;;5070530;28;20035;-31
2022/08/18 12:46:22;;;;;;;3.85;2.28;;;29.40;99.90;;;;;;5053733;28;20502;-34
2022/08/18 12:48:49;;;;;;;3.25;2.00;;;29.70;99.90;;;;;;5045465;28;20032;-32
2022/08/18 12:51:15;;;;;;;2.70;1.95;;;30.30;99.90;;;;;;5053579;28;20511;-30
2022/08/18 12:53:41;;;;;;;2.67;1.75;;;30.30;99.90;;;;;;5068818;28;20040;-30
2022/08/18 12:56:19;;;;;;;2.70;1.70;;;29.90;96.80;;;;;;5071166;28;20033;-31
2022/08/18 12:58:44;;;;;;;2.22;1.75;;;29.20;95.30;;;;;;5060099;28;20043;-31
2022/08/18 13:01:10;;;;;;;2.30;1.90;;;29.00;99.90;;;;;;5068994;28;20514;-33
2022/08/18 13:03:36;;;;;;;2.03;1.60;;;29.50;99.90;;;;;;5069822;28;20111;-31
2022/08/18 13:06:01;;;;;;;2.20;1.67;;;30.20;99.90;;;;;;5069919;28;20041;-31
2022/08/18 13:08:27;;;;;;;2.15;1.45;;;30.30;95.00;;;;;;5053099;28;20106;-32
2022/08/18 13:10:53;;;;;;;1.83;1.42;;;29.90;92.70;;;;;;5069002;28;20457;-33
2022/08/18 13:13:20;;;;;;;3.03;1.70;;;29.20;93.60;;;;;;5068730;28;20071;-31
2022/08/18 13:15:47;;;;;;;2.33;1.90;;;29.00;94.50;;;;;;5053275;28;20068;-34
2022/08/18 13:18:13;;;;;;;3.25;1.77;;;28.70;96.80;;;;;;5069644;28;20383;-30
2022/08/18 13:20:40;;;;;;;2.92;1.70;;;28.50;98.20;;;;;;5052210;28;20044;-31
2022/08/18 13:23:06;;;;;;;3.95;2.00;;;28.20;98.10;;;;;;5068954;28;20394;-33
2022/08/18 13:25:32;;;;;;;2.30;1.75;;;27.90;99.00;;;;;;5051453;28;20032;-31